createdAt,value
2019-02-26T00:01:36.313Z,3.20
2019-02-26T00:04:24.967Z,3.30
2019-02-26T00:07:14.238Z,3.10
2019-02-26T00:10:02.620Z,3.10
2019-02-26T00:12:49.442Z,3.10
2019-02-26T00:15:40.008Z,3.00
2019-02-26T00:18:24.806Z,3.00
2019-02-26T00:21:12.203Z,3.00
2019-02-26T00:23:59.449Z,3.00
2019-02-26T00:26:46.726Z,3.00
2019-02-26T00:29:33.732Z,3.00
2019-02-26T00:32:21.160Z,2.80
2019-02-26T00:35:08.479Z,2.90
2019-02-26T00:37:57.253Z,2.90
2019-02-26T00:40:44.467Z,2.80
2019-02-26T00:43:32.378Z,2.80
2019-02-26T00:46:24.101Z,2.80
2019-02-26T00:49:08.871Z,2.70
2019-02-26T00:51:55.645Z,2.70
2019-02-26T00:54:42.862Z,2.60
2019-02-26T00:57:31.726Z,2.60
2019-02-26T01:00:18.946Z,2.20
2019-02-26T01:03:08.456Z,2.20
2019-02-26T01:05:56.951Z,2.30
2019-02-26T01:08:44.902Z,2.30
2019-02-26T01:11:32.284Z,2.40
2019-02-26T01:14:20.402Z,2.30
2019-02-26T01:17:08.201Z,2.30
2019-02-26T01:19:58.355Z,2.40
2019-02-26T01:22:45.546Z,2.30
2019-02-26T01:25:32.814Z,2.30
2019-02-26T01:28:20.826Z,2.30
2019-02-26T01:31:08.092Z,2.20
2019-02-26T01:33:55.310Z,2.30
2019-02-26T01:36:44.923Z,2.20
2019-02-26T01:39:32.299Z,2.20
2019-02-26T01:42:22.445Z,2.10
2019-02-26T01:45:12.952Z,2.10
2019-02-26T01:48:00.126Z,2.10
2019-02-26T01:50:47.359Z,2.00
2019-02-26T01:53:34.360Z,1.90
2019-02-26T01:56:21.669Z,1.90
2019-02-26T01:59:08.570Z,1.90
2019-02-26T02:01:56.123Z,1.90
2019-02-26T02:04:43.508Z,1.80
2019-02-26T02:07:30.637Z,1.90
2019-02-26T02:10:17.448Z,1.90
2019-02-26T02:13:06.980Z,1.80
2019-02-26T02:15:53.518Z,1.80
2019-02-26T02:18:43.657Z,1.80
2019-02-26T02:21:31.029Z,1.80
2019-02-26T02:24:19.556Z,1.80
2019-02-26T02:27:06.044Z,1.70
2019-02-26T02:29:55.444Z,1.70
2019-02-26T02:32:42.239Z,1.70
2019-02-26T02:35:29.399Z,1.70
2019-02-26T02:38:19.522Z,1.70
2019-02-26T02:41:05.045Z,1.70
2019-02-26T02:43:52.465Z,1.70
2019-02-26T02:46:41.871Z,1.50
2019-02-26T02:49:29.686Z,1.60
2019-02-26T02:52:17.166Z,1.50
2019-02-26T02:55:06.990Z,1.50
2019-02-26T02:57:55.148Z,1.50
2019-02-26T03:00:43.353Z,1.50
2019-02-26T03:03:30.211Z,1.50
2019-02-26T03:06:17.667Z,1.50
2019-02-26T03:09:09.151Z,1.50
2019-02-26T03:11:56.455Z,1.40
2019-02-26T03:14:44.508Z,1.40
2019-02-26T03:17:31.674Z,1.40
2019-02-26T03:20:19.147Z,1.30
2019-02-26T03:23:09.092Z,1.30
2019-02-26T03:25:55.257Z,1.20
2019-02-26T03:28:44.455Z,1.20
2019-02-26T03:31:35.053Z,1.20
2019-02-26T03:34:24.509Z,1.20
2019-02-26T03:37:10.472Z,1.20
2019-02-26T03:39:57.395Z,1.20
2019-02-26T03:42:46.339Z,1.20
2019-02-26T03:45:33.521Z,1.10
2019-02-26T03:48:20.583Z,1.10
2019-02-26T03:51:07.839Z,1.10
2019-02-26T03:53:54.754Z,1.10
2019-02-26T03:56:41.910Z,1.10
2019-02-26T03:59:28.879Z,1.10
2019-02-26T04:02:18.123Z,1.10
2019-02-26T04:05:08.965Z,1.10
2019-02-26T04:07:58.921Z,1.10
2019-02-26T04:10:47.440Z,0.90
2019-02-26T04:13:33.930Z,0.70
2019-02-26T04:16:21.509Z,0.80
2019-02-26T04:19:09.455Z,0.80
2019-02-26T04:22:26.344Z,0.90
2019-02-26T04:25:22.142Z,0.90
2019-02-26T04:28:27.257Z,0.90
2019-02-26T04:31:18.082Z,0.70
2019-02-26T04:34:11.089Z,0.50
2019-02-26T04:37:07.170Z,0.60
2019-02-26T04:40:15.942Z,0.70
2019-02-26T04:43:25.436Z,0.60
2019-02-26T04:46:31.579Z,0.70
2019-02-26T04:49:18.689Z,0.60
2019-02-26T04:52:08.580Z,0.60
2019-02-26T04:54:54.835Z,0.70
2019-02-26T04:57:43.316Z,0.60
2019-02-26T05:00:35.330Z,0.50
2019-02-26T05:03:20.191Z,0.60
2019-02-26T05:06:07.872Z,0.50
2019-02-26T05:08:59.418Z,0.50
2019-02-26T05:11:45.218Z,0.60
2019-02-26T05:14:32.158Z,0.60
2019-02-26T05:17:23.458Z,0.50
2019-02-26T05:20:10.621Z,0.50
2019-02-26T05:22:58.465Z,0.50
2019-02-26T05:25:45.530Z,0.40
2019-02-26T05:28:35.677Z,0.40
2019-02-26T05:31:21.651Z,0.50
2019-02-26T05:34:09.081Z,0.50
2019-02-26T05:36:56.258Z,0.50
2019-02-26T05:39:45.890Z,0.40
2019-02-26T05:42:32.032Z,0.30
2019-02-26T05:45:21.491Z,0.30
2019-02-26T05:48:07.945Z,0.30
2019-02-26T05:50:57.340Z,0.30
2019-02-26T05:53:43.667Z,0.30
2019-02-26T05:56:31.029Z,0.30
2019-02-26T05:59:21.311Z,0.30
2019-02-26T06:02:06.770Z,0.30
2019-02-26T06:04:54.217Z,0.30
2019-02-26T06:07:41.505Z,0.30
2019-02-26T06:10:30.455Z,0.20
2019-02-26T06:13:17.652Z,0.00
2019-02-26T06:16:07.279Z,0.00
2019-02-26T06:18:54.476Z,0.10
2019-02-26T06:21:43.970Z,0.10
2019-02-26T06:24:33.050Z,0.20
2019-02-26T06:27:21.987Z,0.20
2019-02-26T06:30:12.309Z,0.30
2019-02-26T06:33:02.073Z,0.30
2019-02-26T06:35:47.805Z,0.30
2019-02-26T06:38:35.039Z,0.30
2019-02-26T06:41:22.573Z,0.30
2019-02-26T06:44:09.213Z,0.40
2019-02-26T06:46:58.089Z,0.40
2019-02-26T06:49:45.715Z,0.50
2019-02-26T06:52:37.253Z,0.60
2019-02-26T06:55:22.307Z,0.50
2019-02-26T06:58:21.348Z,0.60
2019-02-26T07:01:09.576Z,0.80
2019-02-26T07:03:57.080Z,0.90
2019-02-26T07:06:44.296Z,1.10
2019-02-26T07:09:32.429Z,1.20
2019-02-26T07:12:21.711Z,1.30
2019-02-26T07:15:14.358Z,1.40
2019-02-26T07:18:04.472Z,1.50
2019-02-26T07:20:52.594Z,1.60
2019-02-26T07:23:40.006Z,1.70
2019-02-26T07:26:27.304Z,1.70
2019-02-26T07:29:17.455Z,1.90
2019-02-26T07:32:03.136Z,2.20
2019-02-26T07:34:52.141Z,2.40
2019-02-26T07:37:40.370Z,2.60
2019-02-26T07:40:28.488Z,2.70
2019-02-26T07:43:17.929Z,3.00
2019-02-26T07:46:05.020Z,3.30
2019-02-26T07:48:53.965Z,3.20
2019-02-26T07:51:42.898Z,3.30
2019-02-26T07:54:29.417Z,3.70
2019-02-26T07:57:18.169Z,4.40
2019-02-26T08:00:17.313Z,4.70
2019-02-26T08:03:04.711Z,5.20
2019-02-26T08:05:52.055Z,5.40
2019-02-26T08:08:40.155Z,5.70
2019-02-26T08:11:28.432Z,6.40
2019-02-26T08:14:16.100Z,8.80
2019-02-26T08:17:04.371Z,8.30
2019-02-26T08:19:52.287Z,10.30
2019-02-26T08:22:39.590Z,9.20
2019-02-26T08:25:26.408Z,9.40
2019-02-26T08:28:15.314Z,9.50
2019-02-26T08:31:02.368Z,9.40
2019-02-26T08:33:51.707Z,9.20
2019-02-26T08:36:37.928Z,10.10
2019-02-26T08:39:25.126Z,10.60
2019-02-26T08:42:12.307Z,11.40
2019-02-26T08:44:59.506Z,12.20
2019-02-26T08:47:46.757Z,12.60
2019-02-26T08:50:36.165Z,12.50
2019-02-26T08:53:24.830Z,13.00
2019-02-26T08:56:12.321Z,13.80
2019-02-26T08:59:00.944Z,13.90
2019-02-26T09:01:49.438Z,13.90
2019-02-26T09:04:38.354Z,14.30
2019-02-26T09:07:26.361Z,14.50
2019-02-26T09:10:17.569Z,15.00
2019-02-26T09:13:06.273Z,15.50
2019-02-26T09:15:55.604Z,15.60
2019-02-26T09:18:43.241Z,16.20
2019-02-26T09:21:31.166Z,17.00
2019-02-26T09:24:18.646Z,17.40
2019-02-26T09:27:06.457Z,18.00
2019-02-26T09:29:54.015Z,18.30
2019-02-26T09:32:44.332Z,18.80
2019-02-26T09:35:32.970Z,18.60
2019-02-26T09:38:22.976Z,19.10
2019-02-26T09:41:11.751Z,19.20
2019-02-26T09:44:00.076Z,19.30
2019-02-26T09:46:48.446Z,19.20
2019-02-26T09:49:36.414Z,19.80
2019-02-26T09:52:27.234Z,20.20
2019-02-26T09:55:15.399Z,20.20
2019-02-26T09:58:03.182Z,20.70
2019-02-26T10:00:53.476Z,21.00
2019-02-26T10:03:41.426Z,21.30
2019-02-26T10:06:29.416Z,22.10
2019-02-26T10:09:18.741Z,21.90
2019-02-26T10:12:07.592Z,22.70
2019-02-26T10:14:59.357Z,23.10
2019-02-26T10:17:45.212Z,22.40
2019-02-26T10:20:33.145Z,23.00
2019-02-26T10:23:21.701Z,23.30
2019-02-26T10:26:10.900Z,22.90
2019-02-26T10:29:04.220Z,23.70
2019-02-26T10:31:48.109Z,23.90
2019-02-26T10:34:35.943Z,24.20
2019-02-26T10:37:23.190Z,24.30
2019-02-26T10:40:12.155Z,24.00
2019-02-26T10:43:00.106Z,24.90
2019-02-26T10:45:48.327Z,24.80
2019-02-26T10:48:36.012Z,24.20
2019-02-26T10:51:26.166Z,24.30
2019-02-26T10:54:17.638Z,24.00
2019-02-26T10:57:04.594Z,25.20
2019-02-26T10:59:50.279Z,24.90
2019-02-26T11:02:37.492Z,25.20
2019-02-26T11:05:26.525Z,25.90
2019-02-26T11:08:14.051Z,25.80
2019-02-26T11:11:01.468Z,26.50
2019-02-26T11:13:51.953Z,26.90
2019-02-26T11:16:39.120Z,27.20
2019-02-26T11:19:27.332Z,27.70
2019-02-26T11:22:18.120Z,28.00
2019-02-26T11:25:05.946Z,28.80
2019-02-26T11:27:53.157Z,28.20
2019-02-26T11:30:40.531Z,33.50
2019-02-26T11:33:28.017Z,29.30
2019-02-26T11:36:15.730Z,29.50
2019-02-26T11:39:05.050Z,28.40
2019-02-26T11:41:53.769Z,29.20
2019-02-26T11:44:41.217Z,29.60
2019-02-26T11:47:28.675Z,28.90
2019-02-26T11:50:27.087Z,29.50
2019-02-26T11:53:10.749Z,29.40
2019-02-26T11:55:59.911Z,29.80
2019-02-26T11:58:47.069Z,29.80
2019-02-26T12:01:36.494Z,28.90
2019-02-26T12:04:23.310Z,27.90
2019-02-26T12:07:10.564Z,27.90
2019-02-26T12:10:01.881Z,28.70
2019-02-26T12:12:48.400Z,29.50
2019-02-26T12:15:39.766Z,29.60
2019-02-26T12:18:25.675Z,31.00
2019-02-26T12:21:13.207Z,29.60
2019-02-26T12:24:01.579Z,29.80
2019-02-26T12:26:49.992Z,30.30
2019-02-26T12:29:40.207Z,30.10
2019-02-26T12:32:29.558Z,30.80
2019-02-26T12:35:17.995Z,30.80
2019-02-26T12:38:17.550Z,31.10
2019-02-26T12:40:54.557Z,31.20
2019-02-26T12:43:45.820Z,31.50
2019-02-26T12:46:31.937Z,30.20
2019-02-26T12:49:22.392Z,29.80
2019-02-26T12:52:09.170Z,29.80
2019-02-26T12:54:57.711Z,30.10
2019-02-26T12:57:47.242Z,30.70
2019-02-26T13:00:34.990Z,31.10
2019-02-26T13:03:23.061Z,30.10
2019-02-26T13:06:12.121Z,31.00
2019-02-26T13:08:59.558Z,29.80
2019-02-26T13:12:00.527Z,28.80
2019-02-26T13:14:36.109Z,29.70
2019-02-26T13:17:26.180Z,29.30
2019-02-26T13:20:14.749Z,29.00
2019-02-26T13:23:16.202Z,29.00
2019-02-26T13:25:51.633Z,30.10
2019-02-26T13:28:41.912Z,30.10
2019-02-26T13:31:28.040Z,29.10
2019-02-26T13:34:15.249Z,29.30
2019-02-26T13:37:02.473Z,30.40
2019-02-26T13:39:49.890Z,30.30
2019-02-26T13:42:37.434Z,30.20
2019-02-26T13:45:27.271Z,29.50
2019-02-26T13:48:14.994Z,29.90
2019-02-26T13:51:02.680Z,31.10
2019-02-26T13:53:49.901Z,29.40
2019-02-26T13:56:37.337Z,29.40
2019-02-26T13:59:24.650Z,29.60
2019-02-26T14:02:12.067Z,29.60
2019-02-26T14:04:59.305Z,28.20
2019-02-26T14:07:47.041Z,30.10
2019-02-26T14:10:34.727Z,29.50
2019-02-26T14:13:21.999Z,29.80
2019-02-26T14:16:09.694Z,30.60
2019-02-26T14:18:56.968Z,30.60
2019-02-26T14:21:44.409Z,30.90
2019-02-26T14:24:31.733Z,29.30
2019-02-26T14:27:18.874Z,30.20
2019-02-26T14:30:11.710Z,30.10
2019-02-26T14:32:59.003Z,29.40
2019-02-26T14:35:46.214Z,29.00
2019-02-26T14:38:33.589Z,29.00
2019-02-26T14:41:20.665Z,28.50
2019-02-26T14:44:08.190Z,28.10
2019-02-26T14:46:55.442Z,28.30
2019-02-26T14:49:42.650Z,27.90
2019-02-26T14:52:29.982Z,27.90
2019-02-26T14:55:17.678Z,28.20
2019-02-26T14:58:04.729Z,29.00
2019-02-26T15:00:57.623Z,28.40
2019-02-26T15:03:41.272Z,27.60
2019-02-26T15:06:28.653Z,27.40
2019-02-26T15:09:16.293Z,28.70
2019-02-26T15:12:04.127Z,28.70
2019-02-26T15:14:51.819Z,28.80
2019-02-26T15:17:39.452Z,29.00
2019-02-26T15:20:27.594Z,28.90
2019-02-26T15:23:15.126Z,28.10
2019-02-26T15:26:02.853Z,28.30
2019-02-26T15:28:50.202Z,27.70
2019-02-26T15:31:37.479Z,27.80
2019-02-26T15:34:24.964Z,27.10
2019-02-26T15:37:12.658Z,25.90
2019-02-26T15:40:00.330Z,25.20
2019-02-26T15:42:52.449Z,24.60
2019-02-26T15:45:37.101Z,24.10
2019-02-26T15:48:24.919Z,23.50
2019-02-26T15:51:14.597Z,24.40
2019-02-26T15:54:01.983Z,23.40
2019-02-26T15:56:49.530Z,23.70
2019-02-26T15:59:36.732Z,23.70
2019-02-26T16:02:25.984Z,23.60
2019-02-26T16:05:13.312Z,23.70
2019-02-26T16:08:00.936Z,23.90
2019-02-26T16:10:48.526Z,24.50
2019-02-26T16:13:35.978Z,24.50
2019-02-26T16:16:23.310Z,24.70
2019-02-26T16:19:11.034Z,24.70
2019-02-26T16:21:58.378Z,24.60
2019-02-26T16:24:45.466Z,24.10
2019-02-26T16:27:37.710Z,23.50
2019-02-26T16:30:24.577Z,22.90
2019-02-26T16:33:13.572Z,22.30
2019-02-26T16:36:02.068Z,21.20
2019-02-26T16:38:51.420Z,20.70
2019-02-26T16:41:39.282Z,20.10
2019-02-26T16:44:27.246Z,19.80
2019-02-26T16:47:15.315Z,19.50
2019-02-26T16:50:12.500Z,19.20
2019-02-26T16:52:52.607Z,19.00
2019-02-26T16:55:40.280Z,18.50
2019-02-26T16:58:28.128Z,18.20
2019-02-26T17:01:16.145Z,17.80
2019-02-26T17:04:05.578Z,17.60
2019-02-26T17:06:53.956Z,17.30
2019-02-26T17:09:41.867Z,17.20
2019-02-26T17:12:30.044Z,17.30
2019-02-26T17:15:23.717Z,16.80
2019-02-26T17:18:09.915Z,16.50
2019-02-26T17:20:57.440Z,16.60
2019-02-26T17:23:47.077Z,16.60
2019-02-26T17:26:34.786Z,16.40
2019-02-26T17:29:22.178Z,16.20
2019-02-26T17:32:09.771Z,16.00
2019-02-26T17:34:57.536Z,15.90
2019-02-26T17:37:45.604Z,15.40
2019-02-26T17:40:36.381Z,15.00
2019-02-26T17:43:22.880Z,14.70
2019-02-26T17:46:10.343Z,14.40
2019-02-26T17:48:57.601Z,14.20
2019-02-26T17:51:44.722Z,14.10
2019-02-26T17:54:31.434Z,13.50
2019-02-26T17:57:20.182Z,13.00
2019-02-26T18:00:16.716Z,13.20
2019-02-26T18:03:07.270Z,12.80
2019-02-26T18:05:52.755Z,12.90
2019-02-26T18:08:39.585Z,13.00
2019-02-26T18:11:26.349Z,12.90
2019-02-26T18:14:13.456Z,12.70
2019-02-26T18:17:00.718Z,12.60
2019-02-26T18:19:49.595Z,12.50
2019-02-26T18:22:37.047Z,12.30
2019-02-26T18:25:25.140Z,12.10
2019-02-26T18:28:12.467Z,11.80
2019-02-26T18:30:59.792Z,11.70
2019-02-26T18:33:46.860Z,11.90
2019-02-26T18:36:33.516Z,11.50
2019-02-26T18:39:22.636Z,11.50
2019-02-26T18:42:09.443Z,11.30
2019-02-26T18:44:56.496Z,11.20
2019-02-26T18:47:43.290Z,11.00
2019-02-26T18:50:30.695Z,10.80
2019-02-26T18:53:17.638Z,10.70
2019-02-26T18:56:04.934Z,10.70
2019-02-26T18:58:51.982Z,10.50
2019-02-26T19:01:39.702Z,10.20
2019-02-26T19:04:26.842Z,10.10
2019-02-26T19:07:13.815Z,10.20
2019-02-26T19:10:00.661Z,10.20
2019-02-26T19:12:47.969Z,10.10
2019-02-26T19:15:35.739Z,10.00
2019-02-26T19:18:22.883Z,9.90
2019-02-26T19:21:10.107Z,9.70
2019-02-26T19:23:56.967Z,9.80
2019-02-26T19:26:44.508Z,9.80
2019-02-26T19:29:32.647Z,9.60
2019-02-26T19:32:19.432Z,9.40
2019-02-26T19:35:12.276Z,9.20
2019-02-26T19:37:59.368Z,9.20
2019-02-26T19:40:52.768Z,9.00
2019-02-26T19:43:40.135Z,8.90
2019-02-26T19:46:27.197Z,8.60
2019-02-26T19:49:14.146Z,8.60
2019-02-26T19:52:01.527Z,8.70
2019-02-26T19:54:48.674Z,8.50
2019-02-26T19:57:35.429Z,8.60
2019-02-26T20:00:22.786Z,8.50
2019-02-26T20:03:10.240Z,8.50
2019-02-26T20:05:57.547Z,8.40
2019-02-26T20:08:47.201Z,8.20
2019-02-26T20:11:33.433Z,8.20
2019-02-26T20:14:21.757Z,8.00
2019-02-26T20:17:14.823Z,8.00
2019-02-26T20:19:57.794Z,8.00
2019-02-26T20:22:44.724Z,7.90
2019-02-26T20:25:32.077Z,7.60
2019-02-26T20:28:19.344Z,7.70
2019-02-26T20:31:06.222Z,7.60
2019-02-26T20:33:53.257Z,7.70
2019-02-26T20:36:40.228Z,7.50
2019-02-26T20:39:27.411Z,7.50
2019-02-26T20:42:14.744Z,7.40
2019-02-26T20:45:01.849Z,7.30
2019-02-26T20:47:49.112Z,7.20
2019-02-26T20:50:36.225Z,7.20
2019-02-26T20:53:23.688Z,7.00
2019-02-26T20:56:10.938Z,6.90
2019-02-26T20:58:57.991Z,6.90
2019-02-26T21:01:45.655Z,6.70
2019-02-26T21:04:33.017Z,6.60
2019-02-26T21:07:21.843Z,6.50
2019-02-26T21:10:15.099Z,6.60
2019-02-26T21:13:01.868Z,6.50
2019-02-26T21:15:49.310Z,6.20
2019-02-26T21:18:36.599Z,6.20
2019-02-26T21:21:23.714Z,6.40
2019-02-26T21:24:11.016Z,6.40
2019-02-26T21:26:58.049Z,6.50
2019-02-26T21:29:45.297Z,6.40
2019-02-26T21:32:32.366Z,6.30
2019-02-26T21:35:20.500Z,6.30
2019-02-26T21:38:08.325Z,6.20
2019-02-26T21:40:55.699Z,6.20
2019-02-26T21:43:42.984Z,6.20
2019-02-26T21:46:30.427Z,6.20
2019-02-26T21:49:17.238Z,6.10
2019-02-26T21:52:08.792Z,6.10
2019-02-26T21:54:57.521Z,6.00
2019-02-26T21:57:42.378Z,6.00
2019-02-26T22:00:29.544Z,5.90
2019-02-26T22:03:16.789Z,5.60
2019-02-26T22:06:05.596Z,5.60
2019-02-26T22:08:54.902Z,5.60
2019-02-26T22:11:41.715Z,5.50
2019-02-26T22:14:29.009Z,5.50
2019-02-26T22:17:16.387Z,5.60
2019-02-26T22:20:04.594Z,5.40
2019-02-26T22:22:51.716Z,5.40
2019-02-26T22:25:38.487Z,5.40
2019-02-26T22:28:25.985Z,5.40
2019-02-26T22:31:13.051Z,5.40
2019-02-26T22:34:00.115Z,5.30
2019-02-26T22:36:47.168Z,5.30
2019-02-26T22:39:34.169Z,5.30
2019-02-26T22:42:21.102Z,5.20
2019-02-26T22:45:10.829Z,5.10
2019-02-26T22:47:57.904Z,5.00
2019-02-26T22:50:44.838Z,4.90
2019-02-26T22:53:31.845Z,4.80
2019-02-26T22:56:18.867Z,4.90
2019-02-26T22:59:08.008Z,4.90
2019-02-26T23:01:56.389Z,4.90
2019-02-26T23:04:43.624Z,4.80
2019-02-26T23:07:30.623Z,4.80
2019-02-26T23:10:17.737Z,4.50
2019-02-26T23:13:04.708Z,4.50
2019-02-26T23:15:51.884Z,4.60
2019-02-26T23:18:39.433Z,4.50
2019-02-26T23:21:26.623Z,4.50
2019-02-26T23:24:13.996Z,4.40
2019-02-26T23:27:01.286Z,4.50
2019-02-26T23:29:48.920Z,4.30
2019-02-26T23:32:36.589Z,4.30
2019-02-26T23:35:24.755Z,4.30
2019-02-26T23:38:11.559Z,4.30
2019-02-26T23:41:00.338Z,4.20
2019-02-26T23:43:47.807Z,4.20
2019-02-26T23:46:35.120Z,4.10
2019-02-26T23:49:22.365Z,4.10
2019-02-26T23:52:09.413Z,4.00
2019-02-26T23:54:56.110Z,3.90
2019-02-26T23:57:43.229Z,3.80
